Time;durP1;ratioP1;P1;durP2;ratioP2;P2;SDS_P1;SDS_P2;PMS_P1;PMS_P2;Temp;Humidity;BMP_temperature;BMP_pressure;BME280_temperature;BME280_humidity;BME280_pressure;Samples;Min_cycle;Max_cycle;Signal;HPM_P1;HPM_P2
2022/03/19 00:00:58;;;;;;;1.35;0.82;;;;;;;;;;5056849;28;20446;-73
2022/03/19 00:03:23;;;;;;;0.43;0.43;;;;;;;;;;5056019;28;20135;-73
2022/03/19 00:05:49;;;;;;;2.17;1.17;;;;;;;;;;5041534;28;20491;-73
2022/03/19 00:08:17;;;;;;;0.45;0.45;;;;;;;;;;5054487;28;20047;-73
2022/03/19 00:10:48;;;;;;;2.17;1.25;;;;;;;;;;5055835;28;20068;-74
2022/03/19 00:13:14;;;;;;;1.08;1.05;;;;;;;;;;5055734;28;20021;-75
2022/03/19 00:15:41;;;;;;;1.70;1.08;;;;;;;;;;5055473;28;20052;-74
2022/03/19 00:18:06;;;;;;;0.38;0.38;;;;;;;;;;5054757;28;20036;-74
2022/03/19 00:20:33;;;;;;;0.47;0.40;;;;;;;;;;5056731;28;20033;-74
2022/03/19 00:22:59;;;;;;;0.70;0.70;;;;;;;;;;5038919;28;20041;-74
2022/03/19 00:25:24;;;;;;;1.65;1.33;;;;;;;;;;5055614;28;20353;-74
2022/03/19 00:27:55;;;;;;;2.83;2.10;;;;;;;;;;5056801;28;20036;-75
2022/03/19 00:30:20;;;;;;;0.52;0.52;;;;;;;;;;5056830;28;20366;-74
2022/03/19 00:32:46;;;;;;;0.88;0.85;;;;;;;;;;5055539;28;20059;-74
2022/03/19 00:35:12;;;;;;;2.67;1.73;;;;;;;;;;5058732;28;20112;-74
2022/03/19 00:37:46;;;;;;;4.45;3.30;;;;;;;;;;5055810;28;20070;-73
2022/03/19 00:40:16;;;;;;;1.13;0.80;;;;;;;;;;5054044;28;20031;-74
2022/03/19 00:42:45;;;;;;;0.98;0.98;;;;;;;;;;5055826;28;20093;-75
2022/03/19 00:45:11;;;;;;;1.35;1.25;;;;;;;;;;5055678;28;20025;-75
2022/03/19 00:47:36;;;;;;;0.20;0.20;;;;;;;;;;5051890;28;20044;-74
2022/03/19 00:50:09;;;;;;;0.73;0.73;;;;;;;;;;5053289;28;20021;-74
2022/03/19 00:52:34;;;;;;;1.30;1.08;;;;;;;;;;5054685;28;20021;-74
2022/03/19 00:55:00;;;;;;;0.70;0.70;;;;;;;;;;5055015;28;20036;-74
2022/03/19 00:57:25;;;;;;;3.20;1.35;;;;;;;;;;5056495;28;20031;-74
2022/03/19 00:59:50;;;;;;;0.63;0.63;;;;;;;;;;5055304;28;20039;-74
2022/03/19 01:02:18;;;;;;;0.40;0.40;;;;;;;;;;5052481;28;20067;-75
2022/03/19 01:04:44;;;;;;;0.45;0.32;;;;;;;;;;5054132;28;20484;-74
2022/03/19 01:07:09;;;;;;;1.98;1.77;;;;;;;;;;5057847;28;20033;-74
2022/03/19 01:09:34;;;;;;;1.48;0.40;;;;;;;;;;5055206;28;20112;-75
2022/03/19 01:12:00;;;;;;;0.28;0.28;;;;;;;;;;5055029;28;20025;-75
2022/03/19 01:14:25;;;;;;;0.98;0.93;;;;;;;;;;5054537;28;20358;-75
2022/03/19 01:16:53;;;;;;;0.85;0.80;;;;;;;;;;5054526;28;20036;-75
2022/03/19 01:19:52;;;;;;;0.57;0.57;;;;;;;;;;5055972;28;20032;-75
2022/03/19 01:22:06;;;;;;;2.53;1.38;;;;;;;;;;5055401;28;20450;-74
2022/03/19 01:24:34;;;;;;;0.40;0.40;;;;;;;;;;5055541;28;20028;-75
2022/03/19 01:27:02;;;;;;;0.73;0.73;;;;;;;;;;5054180;28;20032;-74
2022/03/19 01:29:27;;;;;;;1.95;1.83;;;;;;;;;;5054673;28;20124;-74
2022/03/19 01:31:52;;;;;;;4.53;1.48;;;;;;;;;;5055167;28;20063;-74
2022/03/19 01:34:18;;;;;;;1.73;1.40;;;;;;;;;;5055219;28;20359;-75
2022/03/19 01:36:43;;;;;;;8.32;4.35;;;;;;;;;;5060373;28;20152;-75
2022/03/19 01:39:08;;;;;;;2.65;2.10;;;;;;;;;;5053234;28;20048;-79
2022/03/19 01:41:41;;;;;;;1.75;1.33;;;;;;;;;;5054297;28;20059;-75
2022/03/19 01:44:07;;;;;;;0.70;0.70;;;;;;;;;;5055113;28;20469;-74
2022/03/19 01:47:10;;;;;;;1.35;0.93;;;;;;;;;;5055078;28;20025;-75
2022/03/19 01:49:39;;;;;;;0.50;0.50;;;;;;;;;;5051594;28;20089;-75
2022/03/19 01:52:04;;;;;;;21.00;1.48;;;;;;;;;;5055189;28;20028;-75
2022/03/19 01:54:33;;;;;;;1.23;0.90;;;;;;;;;;5055010;28;20303;-75
2022/03/19 01:56:59;;;;;;;0.60;0.60;;;;;;;;;;5034809;28;20055;-74
2022/03/19 01:59:26;;;;;;;1.02;1.00;;;;;;;;;;5043615;28;20090;-74
2022/03/19 02:01:52;;;;;;;0.63;0.50;;;;;;;;;;5037019;28;20048;-75
2022/03/19 02:04:18;;;;;;;0.45;0.45;;;;;;;;;;5053846;28;20350;-76
2022/03/19 02:06:45;;;;;;;3.10;2.88;;;;;;;;;;5037281;28;20029;-76
2022/03/19 02:09:12;;;;;;;6.97;5.53;;;;;;;;;;5038784;28;20039;-76
2022/03/19 02:11:38;;;;;;;4.55;3.53;;;;;;;;;;5053879;28;20033;-77
2022/03/19 02:14:03;;;;;;;0.20;0.20;;;;;;;;;;5053744;28;20508;-79
2022/03/19 02:16:29;;;;;;;0.68;0.63;;;;;;;;;;5036725;28;20426;-75
2022/03/19 02:19:01;;;;;;;3.20;1.75;;;;;;;;;;5053284;28;20060;-74
2022/03/19 02:21:39;;;;;;;0.85;0.85;;;;;;;;;;5053118;28;20033;-75
2022/03/19 02:26:48;;;;;;;0.38;0.38;;;;;;;;;;5053141;28;20464;-75
2022/03/19 02:29:14;;;;;;;0.47;0.47;;;;;;;;;;5053100;28;20033;-74
2022/03/19 02:31:41;;;;;;;1.27;1.17;;;;;;;;;;5054058;28;20032;-76
2022/03/19 02:34:12;;;;;;;2.30;1.63;;;;;;;;;;5053623;28;20036;-76
2022/03/19 02:36:44;;;;;;;1.90;1.40;;;;;;;;;;5052900;28;20030;-75
2022/03/19 02:39:10;;;;;;;0.73;0.73;;;;;;;;;;5048889;28;20098;-81
2022/03/19 02:41:38;;;;;;;2.05;1.83;;;;;;;;;;5053281;28;20458;-81
2022/03/19 02:44:06;;;;;;;0.57;0.57;;;;;;;;;;5052702;28;20025;-82
2022/03/19 02:47:03;;;;;;;1.67;1.58;;;;;;;;;;5047647;28;20025;-84
2022/03/19 02:49:31;;;;;;;1.38;1.27;;;;;;;;;;5049889;28;20043;-85
2022/03/19 02:52:17;;;;;;;1.40;1.30;;;;;;;;;;5059214;28;20425;-83
2022/03/19 02:54:46;;;;;;;1.40;1.35;;;;;;;;;;5032320;28;20128;-84
2022/03/19 02:57:14;;;;;;;0.90;0.90;;;;;;;;;;5015434;28;20140;-85
2022/03/19 02:59:39;;;;;;;1.65;1.55;;;;;;;;;;5032247;28;20033;-84
2022/03/19 03:02:07;;;;;;;0.75;0.63;;;;;;;;;;5014384;28;20025;-86
2022/03/19 03:04:35;;;;;;;0.30;0.30;;;;;;;;;;5031392;28;20057;-84
2022/03/19 03:07:04;;;;;;;1.17;1.15;;;;;;;;;;5014288;28;20526;-84
2022/03/19 03:09:33;;;;;;;1.65;1.55;;;;;;;;;;5031903;28;20096;-84
2022/03/19 03:12:01;;;;;;;1.60;1.25;;;;;;;;;;5015708;28;20459;-85
2022/03/19 03:14:29;;;;;;;1.10;1.00;;;;;;;;;;5032256;28;20066;-84
2022/03/19 03:17:00;;;;;;;0.65;0.63;;;;;;;;;;5031772;28;20041;-83
2022/03/19 03:19:28;;;;;;;1.80;1.33;;;;;;;;;;5009677;28;20045;-85
2022/03/19 03:21:56;;;;;;;2.08;1.58;;;;;;;;;;5032324;28;20037;-85
2022/03/19 03:24:24;;;;;;;1.45;1.30;;;;;;;;;;5032308;28;20230;-86
2022/03/19 03:26:50;;;;;;;0.10;0.10;;;;;;;;;;5015830;28;20029;-85
2022/03/19 03:29:17;;;;;;;0.80;0.80;;;;;;;;;;5032180;28;20034;-84
2022/03/19 03:31:43;;;;;;;0.32;0.32;;;;;;;;;;5043295;28;20049;-86
2022/03/19 03:34:08;;;;;;;0.90;0.90;;;;;;;;;;5052830;28;20053;-81
2022/03/19 03:36:34;;;;;;;1.20;1.15;;;;;;;;;;5057097;28;20031;-84
2022/03/19 03:38:59;;;;;;;2.08;1.45;;;;;;;;;;5052809;28;20029;-85
2022/03/19 03:41:27;;;;;;;1.92;1.70;;;;;;;;;;5054100;28;20366;-85
2022/03/19 03:43:53;;;;;;;1.50;1.15;;;;;;;;;;5052844;28;20032;-84
2022/03/19 03:46:20;;;;;;;0.30;0.30;;;;;;;;;;5052881;28;20029;-84
2022/03/19 03:48:45;;;;;;;1.55;1.10;;;;;;;;;;5053390;28;20084;-85
2022/03/19 03:51:12;;;;;;;0.47;0.47;;;;;;;;;;5054817;28;20464;-85
2022/03/19 03:53:40;;;;;;;3.40;1.30;;;;;;;;;;5036006;28;20024;-85
2022/03/19 03:56:07;;;;;;;0.57;0.40;;;;;;;;;;5036079;28;20045;-84
2022/03/19 03:58:33;;;;;;;1.25;1.17;;;;;;;;;;5053002;28;20031;-85
2022/03/19 04:00:59;;;;;;;1.60;1.20;;;;;;;;;;5053423;28;20412;-84
2022/03/19 04:03:27;;;;;;;0.77;0.77;;;;;;;;;;5053339;28;20029;-86
2022/03/19 04:05:52;;;;;;;0.85;0.68;;;;;;;;;;5059761;28;20029;-85
2022/03/19 04:08:22;;;;;;;0.57;0.57;;;;;;;;;;5053116;28;20021;-85
2022/03/19 04:10:47;;;;;;;0.75;0.75;;;;;;;;;;5053797;28;20025;-85
2022/03/19 04:13:14;;;;;;;1.35;1.15;;;;;;;;;;5053443;28;20028;-83
2022/03/19 04:15:41;;;;;;;0.63;0.63;;;;;;;;;;5053721;28;20036;-83
2022/03/19 04:18:07;;;;;;;1.05;0.95;;;;;;;;;;5052382;28;20465;-85
2022/03/19 04:20:32;;;;;;;0.45;0.40;;;;;;;;;;5035850;28;20060;-84
2022/03/19 04:22:58;;;;;;;1.35;1.25;;;;;;;;;;5053787;28;20370;-84
2022/03/19 04:25:27;;;;;;;1.08;0.95;;;;;;;;;;5019383;28;20426;-82
2022/03/19 04:28:01;;;;;;;3.45;1.35;;;;;;;;;;5054040;28;20025;-84
2022/03/19 04:30:27;;;;;;;0.82;0.82;;;;;;;;;;5056816;28;20063;-84
2022/03/19 04:32:54;;;;;;;1.80;1.70;;;;;;;;;;5055606;28;20484;-82
2022/03/19 04:38:10;;;;;;;1.20;1.13;;;;;;;;;;5051090;28;20060;-85
2022/03/19 04:40:39;;;;;;;0.05;0.05;;;;;;;;;;5055832;28;20028;-84
2022/03/19 04:43:05;;;;;;;0.40;0.38;;;;;;;;;;5039038;28;20025;-84
2022/03/19 04:45:31;;;;;;;1.75;0.60;;;;;;;;;;5055420;28;20047;-84
2022/03/19 04:47:58;;;;;;;0.30;0.30;;;;;;;;;;5055115;28;20025;-83
2022/03/19 04:50:24;;;;;;;1.50;1.40;;;;;;;;;;5056524;28;20028;-83
2022/03/19 04:52:50;;;;;;;0.10;0.10;;;;;;;;;;5056474;28;20028;-84
2022/03/19 04:55:15;;;;;;;0.40;0.40;;;;;;;;;;5056463;28;20036;-83
2022/03/19 04:57:43;;;;;;;2.40;2.05;;;;;;;;;;5056105;28;20769;-85
2022/03/19 05:00:10;;;;;;;1.55;1.17;;;;;;;;;;5054982;28;20083;-83
2022/03/19 05:02:38;;;;;;;0.40;0.40;;;;;;;;;;5055311;28;20382;-83
2022/03/19 05:05:04;;;;;;;0.35;0.35;;;;;;;;;;5058101;28;20391;-83
2022/03/19 05:07:35;;;;;;;2.58;1.40;;;;;;;;;;5056247;28;20056;-85
2022/03/19 05:12:50;;;;;;;0.25;0.25;;;;;;;;;;5056424;28;20039;-84
2022/03/19 05:15:16;;;;;;;0.77;0.77;;;;;;;;;;5055407;28;20024;-84
2022/03/19 05:17:44;;;;;;;0.93;0.90;;;;;;;;;;5056144;28;20108;-84
2022/03/19 05:20:11;;;;;;;1.25;1.10;;;;;;;;;;5055760;28;20020;-84
2022/03/19 05:22:39;;;;;;;0.90;0.90;;;;;;;;;;5055150;28;20029;-85
2022/03/19 05:25:05;;;;;;;1.02;0.70;;;;;;;;;;5055971;28;20500;-84
2022/03/19 05:27:30;;;;;;;0.65;0.65;;;;;;;;;;5055804;28;20443;-84
2022/03/19 05:29:56;;;;;;;0.82;0.82;;;;;;;;;;5054976;28;20107;-82
2022/03/19 05:32:26;;;;;;;0.20;0.20;;;;;;;;;;5054717;28;20029;-84
2022/03/19 05:34:52;;;;;;;0.43;0.43;;;;;;;;;;5056523;28;20040;-85
2022/03/19 05:37:17;;;;;;;1.30;1.00;;;;;;;;;;5058009;28;20032;-82
2022/03/19 05:39:48;;;;;;;1.02;1.02;;;;;;;;;;5055249;28;20515;-84
2022/03/19 05:42:13;;;;;;;1.50;1.40;;;;;;;;;;5054529;28;20032;-84
2022/03/19 05:44:39;;;;;;;0.80;0.80;;;;;;;;;;5055893;28;20025;-84
2022/03/19 05:47:05;;;;;;;1.30;1.20;;;;;;;;;;5055465;28;20061;-85
2022/03/19 05:49:33;;;;;;;0.73;0.70;;;;;;;;;;5055453;28;20104;-84
2022/03/19 05:52:00;;;;;;;2.08;0.70;;;;;;;;;;5037854;28;20032;-85
2022/03/19 05:54:31;;;;;;;1.98;1.83;;;;;;;;;;5054254;28;20021;-86
2022/03/19 05:56:58;;;;;;;1.52;1.38;;;;;;;;;;5055323;28;20358;-83
2022/03/19 05:59:29;;;;;;;0.82;0.77;;;;;;;;;;5055237;28;20025;-83
2022/03/19 06:01:59;;;;;;;0.50;0.50;;;;;;;;;;5054583;28;20477;-84
2022/03/19 06:04:27;;;;;;;1.88;1.75;;;;;;;;;;5055265;28;20029;-84
2022/03/19 06:06:54;;;;;;;1.02;1.02;;;;;;;;;;5055797;28;20029;-84
2022/03/19 06:09:20;;;;;;;1.30;0.80;;;;;;;;;;5055053;28;20037;-84
2022/03/19 06:11:47;;;;;;;1.30;1.25;;;;;;;;;;5037946;28;20036;-85
2022/03/19 06:14:17;;;;;;;0.65;0.65;;;;;;;;;;5055229;28;20040;-85
2022/03/19 06:16:43;;;;;;;0.38;0.38;;;;;;;;;;5037495;28;20023;-84
2022/03/19 06:19:08;;;;;;;1.83;0.98;;;;;;;;;;5055373;28;20111;-81
2022/03/19 06:21:38;;;;;;;0.45;0.45;;;;;;;;;;5055050;28;20040;-84
2022/03/19 06:24:07;;;;;;;0.60;0.60;;;;;;;;;;5038354;28;20025;-83
2022/03/19 06:26:35;;;;;;;0.60;0.60;;;;;;;;;;5055349;28;20052;-84
2022/03/19 06:29:01;;;;;;;0.40;0.20;;;;;;;;;;5035153;28;20017;-84
2022/03/19 06:31:29;;;;;;;1.50;1.40;;;;;;;;;;5046613;28;20096;-82
2022/03/19 06:33:54;;;;;;;1.15;1.05;;;;;;;;;;5054505;28;20041;-84
2022/03/19 06:39:06;;;;;;;0.85;0.70;;;;;;;;;;5054382;28;20147;-82
2022/03/19 06:41:33;;;;;;;0.75;0.75;;;;;;;;;;5054897;28;20096;-84
2022/03/19 06:44:01;;;;;;;2.45;1.70;;;;;;;;;;5049823;28;20036;-84
2022/03/19 06:46:28;;;;;;;0.63;0.63;;;;;;;;;;5048957;28;20056;-84
2022/03/19 06:48:54;;;;;;;0.73;0.73;;;;;;;;;;5048680;28;20478;-84
2022/03/19 06:51:19;;;;;;;8.50;1.10;;;;;;;;;;5053496;28;20076;-84
2022/03/19 06:53:47;;;;;;;0.32;0.32;;;;;;;;;;5051798;28;20028;-86
2022/03/19 06:56:13;;;;;;;0.60;0.25;;;;;;;;;;5054510;28;20029;-84
2022/03/19 06:58:39;;;;;;;2.38;1.58;;;;;;;;;;5050330;28;20048;-84
2022/03/19 07:01:05;;;;;;;0.13;0.13;;;;;;;;;;5051340;28;20458;-85
2022/03/19 07:03:32;;;;;;;0.65;0.65;;;;;;;;;;5054281;28;20032;-86
2022/03/19 07:06:00;;;;;;;0.25;0.25;;;;;;;;;;5056492;28;20033;-85
2022/03/19 07:08:29;;;;;;;0.75;0.75;;;;;;;;;;5054799;28;20332;-85
2022/03/19 07:10:57;;;;;;;0.52;0.52;;;;;;;;;;5055070;28;20035;-85
2022/03/19 07:13:24;;;;;;;2.80;1.98;;;;;;;;;;5053863;28;20025;-85
2022/03/19 07:15:52;;;;;;;0.52;0.52;;;;;;;;;;5053568;28;20107;-81
2022/03/19 07:18:17;;;;;;;0.40;0.40;;;;;;;;;;5048729;28;20501;-84
2022/03/19 07:20:45;;;;;;;0.95;0.95;;;;;;;;;;5049567;28;20060;-86
2022/03/19 07:23:15;;;;;;;0.35;0.35;;;;;;;;;;5051635;28;20026;-84
2022/03/19 07:25:45;;;;;;;0.95;0.90;;;;;;;;;;5054137;28;20025;-85
2022/03/19 07:28:17;;;;;;;2.97;1.27;;;;;;;;;;5052353;28;20029;-85
2022/03/19 07:30:42;;;;;;;3.38;2.80;;;;;;;;;;5047854;28;20017;-86
2022/03/19 07:33:08;;;;;;;1.45;1.35;;;;;;;;;;5052882;28;20029;-84
2022/03/19 07:35:35;;;;;;;0.50;0.50;;;;;;;;;;5054816;28;20029;-82
2022/03/19 07:38:04;;;;;;;0.08;0.08;;;;;;;;;;5046277;28;20446;-81
2022/03/19 07:43:14;;;;;;;0.95;0.88;;;;;;;;;;5053857;28;20040;-84
2022/03/19 07:45:43;;;;;;;1.50;1.40;;;;;;;;;;5052652;28;20025;-86
2022/03/19 07:48:11;;;;;;;0.63;0.55;;;;;;;;;;5046424;28;20045;-84
2022/03/19 07:50:38;;;;;;;2.15;1.08;;;;;;;;;;5051523;28;20021;-83
2022/03/19 07:53:05;;;;;;;1.08;0.98;;;;;;;;;;5053082;28;20362;-86
2022/03/19 07:55:31;;;;;;;0.25;0.25;;;;;;;;;;5036330;28;20037;-85
2022/03/19 07:58:01;;;;;;;0.40;0.40;;;;;;;;;;5052678;28;20025;-84
2022/03/19 08:00:28;;;;;;;1.10;1.05;;;;;;;;;;5052410;28;20053;-85
2022/03/19 08:02:56;;;;;;;0.40;0.40;;;;;;;;;;5053263;28;20037;-84
2022/03/19 08:05:24;;;;;;;0.40;0.40;;;;;;;;;;5058246;28;20094;-86
2022/03/19 08:07:51;;;;;;;1.55;0.93;;;;;;;;;;5051906;28;20115;-86
2022/03/19 08:10:18;;;;;;;0.77;0.77;;;;;;;;;;5056452;28;20060;-84
2022/03/19 08:12:48;;;;;;;1.52;1.40;;;;;;;;;;5054526;28;20389;-86
2022/03/19 08:15:19;;;;;;;1.95;1.42;;;;;;;;;;5050608;28;20025;-87
2022/03/19 08:17:48;;;;;;;1.42;0.73;;;;;;;;;;5054574;28;20025;-83
2022/03/19 08:20:15;;;;;;;2.80;1.33;;;;;;;;;;5056547;28;20060;-85
2022/03/19 08:22:40;;;;;;;2.55;1.23;;;;;;;;;;5056117;28;20021;-84
2022/03/19 08:25:07;;;;;;;2.78;1.95;;;;;;;;;;5051420;28;20027;-79
2022/03/19 08:27:34;;;;;;;5.63;2.28;;;;;;;;;;5056845;28;20339;-84
2022/03/19 08:30:05;;;;;;;1.08;0.90;;;;;;;;;;5056238;28;20354;-82
2022/03/19 08:32:34;;;;;;;1.95;1.67;;;;;;;;;;5056771;28;20021;-82
2022/03/19 08:35:00;;;;;;;2.58;1.60;;;;;;;;;;5056656;28;20029;-85
2022/03/19 08:37:26;;;;;;;5.20;2.65;;;;;;;;;;5053778;28;20044;-84
2022/03/19 08:42:40;;;;;;;1.23;1.15;;;;;;;;;;5052529;28;20067;-81
2022/03/19 08:45:08;;;;;;;2.55;1.35;;;;;;;;;;5055282;28;20037;-83
2022/03/19 08:47:36;;;;;;;2.58;1.45;;;;;;;;;;5051188;28;20021;-79
2022/03/19 08:50:03;;;;;;;0.88;0.63;;;;;;;;;;5049480;28;20079;-82
2022/03/19 08:52:28;;;;;;;1.52;1.25;;;;;;;;;;5056202;28;20021;-82
2022/03/19 08:54:56;;;;;;;1.80;1.30;;;;;;;;;;5056553;28;20024;-79
2022/03/19 08:57:22;;;;;;;2.20;1.25;;;;;;;;;;5055081;28;20462;-80
2022/03/19 08:59:47;;;;;;;5.50;0.70;;;;;;;;;;5053442;28;20033;-85
2022/03/19 09:02:15;;;;;;;1.73;1.00;;;;;;;;;;5053214;28;20182;-82
2022/03/19 09:04:40;;;;;;;0.50;0.50;;;;;;;;;;5038451;28;20021;-81
2022/03/19 09:07:09;;;;;;;0.63;0.63;;;;;;;;;;5055883;28;20360;-83
2022/03/19 09:09:36;;;;;;;6.50;0.60;;;;;;;;;;5056195;28;20562;-82
2022/03/19 09:12:04;;;;;;;0.70;0.70;;;;;;;;;;5055918;28;20043;-82
2022/03/19 09:14:32;;;;;;;1.10;1.02;;;;;;;;;;5050240;28;20075;-80
2022/03/19 09:16:57;;;;;;;0.70;0.70;;;;;;;;;;5055761;28;20049;-83
2022/03/19 09:19:27;;;;;;;0.38;0.35;;;;;;;;;;5051975;28;20053;-84
2022/03/19 09:21:55;;;;;;;1.27;0.95;;;;;;;;;;5039365;28;20040;-82
2022/03/19 09:24:21;;;;;;;1.83;0.95;;;;;;;;;;5052763;28;20454;-82
2022/03/19 09:26:49;;;;;;;2.00;0.85;;;;;;;;;;5055234;28;20086;-82
2022/03/19 09:29:15;;;;;;;1.60;1.20;;;;;;;;;;5055046;28;20060;-82
2022/03/19 09:31:43;;;;;;;2.42;0.95;;;;;;;;;;5055645;28;20468;-83
2022/03/19 09:34:11;;;;;;;0.30;0.30;;;;;;;;;;5053478;28;20619;-84
2022/03/19 09:36:36;;;;;;;6.22;1.75;;;;;;;;;;5051949;28;20094;-81
2022/03/19 09:39:03;;;;;;;0.80;0.68;;;;;;;;;;5056295;28;20420;-82
2022/03/19 09:41:28;;;;;;;0.70;0.70;;;;;;;;;;5054879;28;20033;-84
2022/03/19 09:43:57;;;;;;;0.82;0.82;;;;;;;;;;5055113;28;20486;-83
2022/03/19 09:46:27;;;;;;;0.43;0.35;;;;;;;;;;5055423;28;20028;-82
2022/03/19 09:48:53;;;;;;;0.03;0.03;;;;;;;;;;5055403;28;20025;-83
2022/03/19 09:51:22;;;;;;;0.30;0.30;;;;;;;;;;5053417;28;20099;-84
2022/03/19 09:53:53;;;;;;;1.63;1.27;;;;;;;;;;5053579;28;20013;-83
2022/03/19 09:56:21;;;;;;;5.82;1.33;;;;;;;;;;5038008;28;20052;-85
2022/03/19 09:58:48;;;;;;;0.25;0.25;;;;;;;;;;5055311;28;20059;-83
2022/03/19 10:01:18;;;;;;;0.57;0.57;;;;;;;;;;5055474;28;20101;-83
2022/03/19 10:03:44;;;;;;;1.02;0.80;;;;;;;;;;5054348;28;20024;-80
2022/03/19 10:09:00;;;;;;;1.02;0.80;;;;;;;;;;5053825;28;20511;-82
2022/03/19 10:11:32;;;;;;;0.30;0.30;;;;;;;;;;5053263;28;20116;-85
2022/03/19 10:14:00;;;;;;;0.20;0.20;;;;;;;;;;5054416;28;20021;-81
2022/03/19 10:16:30;;;;;;;0.60;0.60;;;;;;;;;;5054384;28;20060;-83
2022/03/19 10:18:57;;;;;;;1.15;1.02;;;;;;;;;;5054402;28;20025;-81
2022/03/19 10:21:23;;;;;;;0.43;0.43;;;;;;;;;;5037867;28;20480;-83
2022/03/19 10:23:50;;;;;;;0.65;0.57;;;;;;;;;;5054718;28;20064;-83
2022/03/19 10:26:26;;;;;;;1.90;0.57;;;;;;;;;;5054399;28;20025;-81
2022/03/19 10:29:10;;;;;;;0.38;0.25;;;;;;;;;;5048845;28;20100;-81
2022/03/19 10:31:46;;;;;;;0.98;0.60;;;;;;;;;;5054993;28;20032;-81
2022/03/19 10:34:13;;;;;;;0.22;0.22;;;;;;;;;;5056457;28;20295;-83
2022/03/19 10:37:20;;;;;;;0.30;0.30;;;;;;;;;;5053843;28;20017;-83
2022/03/19 10:39:48;;;;;;;0.40;0.30;;;;;;;;;;5053858;28;20035;-83
2022/03/19 10:42:16;;;;;;;0.20;0.20;;;;;;;;;;5052472;28;20056;-81
2022/03/19 10:44:42;;;;;;;0.20;0.20;;;;;;;;;;5037201;28;20476;-84
2022/03/19 10:47:08;;;;;;;0.13;0.13;;;;;;;;;;5052347;28;20126;-73
2022/03/19 10:49:42;;;;;;;0.08;0.08;;;;;;;;;;5050319;28;20037;-73
2022/03/19 10:52:21;;;;;;;0.10;0.10;;;;;;;;;;5050204;28;20051;-72
2022/03/19 10:54:50;;;;;;;0.40;0.40;;;;;;;;;;5052489;28;20037;-72
2022/03/19 10:57:15;;;;;;;1.17;0.93;;;;;;;;;;5053341;28;20024;-72
2022/03/19 10:59:43;;;;;;;0.57;0.20;;;;;;;;;;5054352;28;20510;-73
2022/03/19 11:02:11;;;;;;;0.70;0.70;;;;;;;;;;5051997;28;20055;-74
2022/03/19 11:04:37;;;;;;;0.30;0.30;;;;;;;;;;5047478;28;20352;-73
2022/03/19 11:07:06;;;;;;;0.30;0.30;;;;;;;;;;5046190;28;20448;-73
2022/03/19 11:09:35;;;;;;;0.43;0.43;;;;;;;;;;5049424;28;20040;-74
2022/03/19 11:12:07;;;;;;;0.10;0.10;;;;;;;;;;5053243;28;20029;-74
2022/03/19 11:14:33;;;;;;;;;;;;;;;;;;5051724;28;20028;-72
2022/03/19 11:17:23;;;;;;;0.38;0.10;;;;;;;;;;5048485;28;19920;-73
2022/03/19 11:20:00;;;;;;;0.00;0.00;;;;;;;;;;5041895;28;20119;-72
2022/03/19 11:22:27;;;;;;;0.00;0.00;;;;;;;;;;5053359;28;20021;-73
2022/03/19 11:25:06;;;;;;;0.77;0.08;;;;;;;;;;5047310;28;20033;-74
2022/03/19 11:27:36;;;;;;;0.13;0.10;;;;;;;;;;5061766;28;20043;-74
2022/03/19 11:30:04;;;;;;;0.28;0.15;;;;;;;;;;5052639;28;20107;-73
2022/03/19 11:32:34;;;;;;;0.50;0.40;;;;;;;;;;5050288;28;20109;-74
2022/03/19 11:35:05;;;;;;;0.15;0.10;;;;;;;;;;5049026;28;20083;-73
2022/03/19 11:38:05;;;;;;;3.60;1.38;;;;;;;;;;5048701;28;20027;-73
2022/03/19 11:40:33;;;;;;;0.05;0.05;;;;;;;;;;5056330;28;20346;-73
2022/03/19 11:43:04;;;;;;;0.20;0.10;;;;;;;;;;5058841;28;20017;-73
2022/03/19 11:45:50;;;;;;;0.30;0.30;;;;;;;;;;5051943;28;20399;-76
2022/03/19 11:48:41;;;;;;;0.00;0.00;;;;;;;;;;5052694;28;20021;-74
2022/03/19 11:51:24;;;;;;;1.13;0.40;;;;;;;;;;5057718;28;20513;-75
2022/03/19 11:53:53;;;;;;;0.10;0.10;;;;;;;;;;5057285;28;20033;-74
2022/03/19 11:56:23;;;;;;;0.52;0.47;;;;;;;;;;5051478;28;20048;-73
2022/03/19 11:58:52;;;;;;;0.10;0.10;;;;;;;;;;5049628;28;20021;-73
2022/03/19 12:01:18;;;;;;;1.55;0.55;;;;;;;;;;5051764;28;20083;-74
2022/03/19 12:04:05;;;;;;;0.10;0.10;;;;;;;;;;5055574;28;20017;-73
2022/03/19 12:06:33;;;;;;;0.93;0.32;;;;;;;;;;5056950;28;20029;-73
2022/03/19 12:09:00;;;;;;;0.35;0.35;;;;;;;;;;5057205;28;20025;-74
2022/03/19 12:11:26;;;;;;;0.50;0.28;;;;;;;;;;5057044;28;20158;-74
2022/03/19 12:13:55;;;;;;;0.55;0.40;;;;;;;;;;5058914;28;20467;-71
2022/03/19 12:16:46;;;;;;;0.00;0.00;;;;;;;;;;5057191;28;20400;-71
2022/03/19 12:19:11;;;;;;;1.20;0.70;;;;;;;;;;5054150;28;20561;-71
2022/03/19 12:21:43;;;;;;;0.57;0.10;;;;;;;;;;5056836;28;20112;-70
2022/03/19 12:24:21;;;;;;;;;;;;;;;;;;5040754;28;20090;-71
2022/03/19 12:26:51;;;;;;;0.75;0.40;;;;;;;;;;5067239;28;20399;-73
2022/03/19 12:29:19;;;;;;;0.08;0.08;;;;;;;;;;5052804;28;20314;-73
2022/03/19 12:31:48;;;;;;;0.10;0.10;;;;;;;;;;5052669;28;20025;-73
2022/03/19 12:34:20;;;;;;;0.38;0.20;;;;;;;;;;5056363;28;20025;-75
2022/03/19 12:36:46;;;;;;;1.30;0.52;;;;;;;;;;5056381;28;20029;-74
2022/03/19 12:39:12;;;;;;;0.10;0.10;;;;;;;;;;5055661;28;20069;-74
2022/03/19 12:41:40;;;;;;;2.85;0.52;;;;;;;;;;5038863;28;20028;-73
2022/03/19 12:44:10;;;;;;;1.63;0.70;;;;;;;;;;5052441;28;20036;-74
2022/03/19 12:46:37;;;;;;;0.28;0.28;;;;;;;;;;5055784;28;20051;-73
2022/03/19 12:49:08;;;;;;;0.40;0.25;;;;;;;;;;5055452;28;20025;-74
2022/03/19 12:51:36;;;;;;;0.70;0.70;;;;;;;;;;5056400;28;20032;-75
2022/03/19 12:54:15;;;;;;;0.17;0.17;;;;;;;;;;5056577;28;20104;-74
2022/03/19 12:56:43;;;;;;;0.25;0.13;;;;;;;;;;5055420;28;20108;-73
2022/03/19 12:59:16;;;;;;;1.05;0.30;;;;;;;;;;5056429;28;20032;-73
2022/03/19 13:01:42;;;;;;;0.40;0.40;;;;;;;;;;5055321;28;20044;-72
2022/03/19 13:04:07;;;;;;;0.57;0.57;;;;;;;;;;5056004;28;20511;-71
2022/03/19 13:06:36;;;;;;;0.63;0.63;;;;;;;;;;5055291;28;20090;-73
2022/03/19 13:09:03;;;;;;;1.08;0.75;;;;;;;;;;5055134;28;20394;-73
2022/03/19 13:11:49;;;;;;;0.82;0.52;;;;;;;;;;5056066;28;20026;-73
2022/03/19 13:14:15;;;;;;;0.10;0.10;;;;;;;;;;5054818;28;20024;-73
2022/03/19 13:16:50;;;;;;;2.05;0.35;;;;;;;;;;5054990;28;20017;-73
2022/03/19 13:19:23;;;;;;;0.43;0.20;;;;;;;;;;5055963;28;20099;-74
2022/03/19 13:21:50;;;;;;;1.17;0.10;;;;;;;;;;5055979;28;20343;-75
2022/03/19 13:24:18;;;;;;;0.70;0.70;;;;;;;;;;5055605;28;20045;-73
2022/03/19 13:26:45;;;;;;;0.20;0.17;;;;;;;;;;5054542;28;20028;-73
2022/03/19 13:29:18;;;;;;;0.08;0.08;;;;;;;;;;5054632;28;20033;-73
2022/03/19 13:31:44;;;;;;;1.10;0.15;;;;;;;;;;5055854;28;20484;-75
2022/03/19 13:34:32;;;;;;;0.10;0.10;;;;;;;;;;5055789;28;20063;-73
2022/03/19 13:36:59;;;;;;;1.10;0.57;;;;;;;;;;5055540;28;20025;-73
2022/03/19 13:39:32;;;;;;;0.03;0.00;;;;;;;;;;5055445;28;20426;-73
2022/03/19 13:42:06;;;;;;;0.03;0.03;;;;;;;;;;5048536;28;20033;-73
2022/03/19 13:44:56;;;;;;;0.15;0.15;;;;;;;;;;5055314;28;20032;-73
2022/03/19 13:47:27;;;;;;;0.65;0.65;;;;;;;;;;5051429;28;20068;-74
2022/03/19 13:49:57;;;;;;;0.13;0.13;;;;;;;;;;5054244;28;20051;-73
2022/03/19 13:52:42;;;;;;;0.00;0.00;;;;;;;;;;5055314;28;20090;-73
2022/03/19 13:55:20;;;;;;;0.00;0.00;;;;;;;;;;5054685;28;20128;-73
2022/03/19 13:57:50;;;;;;;0.75;0.43;;;;;;;;;;5055164;28;20137;-74
2022/03/19 14:00:23;;;;;;;0.00;0.00;;;;;;;;;;5053971;28;20050;-73
2022/03/19 14:03:02;;;;;;;0.47;0.47;;;;;;;;;;5054797;28;20051;-74
2022/03/19 14:05:33;;;;;;;0.25;0.13;;;;;;;;;;5054895;28;20025;-73
2022/03/19 14:08:12;;;;;;;0.40;0.22;;;;;;;;;;5053783;28;20032;-73
2022/03/19 14:10:49;;;;;;;0.43;0.43;;;;;;;;;;5047829;28;20126;-73
2022/03/19 14:13:18;;;;;;;0.38;0.38;;;;;;;;;;5035861;28;20036;-73
2022/03/19 14:15:52;;;;;;;0.75;0.65;;;;;;;;;;5054316;28;20025;-74
2022/03/19 14:18:26;;;;;;;0.80;0.80;;;;;;;;;;5054708;28;20120;-73
2022/03/19 14:20:52;;;;;;;0.20;0.20;;;;;;;;;;5052910;28;20088;-73
2022/03/19 14:23:20;;;;;;;0.43;0.10;;;;;;;;;;5058810;28;20151;-74
2022/03/19 14:25:46;;;;;;;0.60;0.20;;;;;;;;;;5051735;28;20516;-72
2022/03/19 14:28:15;;;;;;;0.55;0.28;;;;;;;;;;5053413;28;20122;-73
2022/03/19 14:30:42;;;;;;;0.00;0.00;;;;;;;;;;5053503;28;20033;-72
2022/03/19 14:33:08;;;;;;;0.03;0.03;;;;;;;;;;5054221;28;20017;-76
2022/03/19 14:35:39;;;;;;;0.47;0.28;;;;;;;;;;5053713;28;20104;-74
2022/03/19 14:38:07;;;;;;;0.15;0.15;;;;;;;;;;5053920;28;20032;-73
2022/03/19 14:40:33;;;;;;;0.32;0.32;;;;;;;;;;5049814;28;20109;-77
2022/03/19 14:42:58;;;;;;;0.10;0.10;;;;;;;;;;5036278;28;20446;-76
2022/03/19 14:45:24;;;;;;;0.32;0.32;;;;;;;;;;5053108;28;20049;-79
2022/03/19 14:47:51;;;;;;;0.35;0.22;;;;;;;;;;5054227;28;20433;-77
2022/03/19 14:50:17;;;;;;;0.10;0.10;;;;;;;;;;5052615;28;20103;-75
2022/03/19 14:52:42;;;;;;;1.45;0.47;;;;;;;;;;5053401;28;20021;-74
2022/03/19 14:55:10;;;;;;;2.25;1.02;;;;;;;;;;5053640;28;20124;-72
2022/03/19 14:57:35;;;;;;;0.00;0.00;;;;;;;;;;5053631;28;20029;-72
2022/03/19 15:00:06;;;;;;;0.22;0.22;;;;;;;;;;5052442;28;20087;-74
2022/03/19 15:02:33;;;;;;;0.30;0.30;;;;;;;;;;5053763;28;20025;-74
2022/03/19 15:04:58;;;;;;;0.10;0.10;;;;;;;;;;5053961;28;20025;-74
2022/03/19 15:07:30;;;;;;;0.03;0.03;;;;;;;;;;5054299;28;20051;-74
2022/03/19 15:09:58;;;;;;;0.03;0.03;;;;;;;;;;5053211;28;20025;-74
2022/03/19 15:12:28;;;;;;;0.32;0.32;;;;;;;;;;5052470;28;20041;-74